Decoded Metar for KDYB ( in ) (IATA:) | Meteo·Mobile Aviation Weather
aviador You're here:

KDYB Decoded Metar

in
Report Time2019-02-17 07:15:00
UTC Time2019-02-17 07:21:16
Flight Rules mvfr MVFR
Wind040° at 04 kt
W.Decomp.*RWY 06: 3.8 kt HW 1.4 kt LCW
W.Rank040° ranks 19
Current wind is below 040° avg. (4.5)
Visibility9999 m
Phenomena:N/A
Clouds:Overcast 016 Hf
Expected CloudBase > 800 ft AGL from Temp-Dew spread
Ceiling1,600 ft
Temp08°C
Dew Point06°C (87% RH)
AAT5.6°C
QNH1014 hPa
Raw Report
KDYB 170715Z AUTO 04004KT 10SM OVC016 08/06 A2995 RMK AO1=

Extra information for KDYB:More info

Social comments